Boaz, AL

3:21 PM CST on February 14, 2016 (GMT -0600)
Double Bridges | | Change Station
CLOSE
Current Station
Personal Weather Station
Location: Boaz, AL
Elevation: 1083 ft
Nearby Weather Stations

Elev 1083 ft 34.22 °N, 86.13 °W | Updated 13 minutes ago

Overcast
Overcast
47.1 °F
Feels Like 45 °F
N
4.2
Wind Variable Wind from West

Today
High -- | Low -- °F
--% Chance of Precip.
Yesterday
High -- | Low -- °F
Precip. -- in
Pressure 30.12 in
Visibility 7.0 miles
Clouds Overcast 4100 ft
Windchill 45 °F
Dew Point 17 °F
Humidity 30%
Rainfall 0.00 in
Snow Depth Not available.
6:31 AM 5:27 PM
Waxing Crescent, 45% visible
METAR K8A0 142055Z AUTO 16007KT 7SM OVC041 08/M06 A3012 RMK AO2
Pressure 30.12 in
Visibility 7.0 miles
Clouds Overcast 4100 ft
Windchill 45 °F
Dew Point 17 °F
Humidity 30%
Rainfall 0.00 in
Snow Depth Not available.
6:31 AM 5:27 PM
Waxing Crescent, 45% visible
METAR K8A0 142055Z AUTO 16007KT 7SM OVC041 08/M06 A3012 RMK AO2

10-Day Weather Forecast

Almanac

Astronomy

Feb. 14, 2016 Rise Set
Actual Time
Civil Twilight
Nautical Twilight
Astronomical Twilight
Moon
Length of Visible Light
Length of Day
Tomorrow will be .
, % of the Moon is Illuminated

Today's Extremes

State Highs State Lows

Community

WunderPhotos

Upload Photos

1,892,887 photos uploaded!

WunderBlog® & News

Nearby

Air Quality

  Air Quality AQ Index Pollutant
Not available.

Snow Depth

Station Depth Elevation

Earthquake Activity

City Distance Mag. Time & Date
Minimum magnitude displayed is 2.5.

Coastal Water Temperatures

Place Temperature

Stations

Nearby Weather Stations

Station Location Temp. Windchill Dew Point Humidity Wind Precip. Elev Updated Type
                   

Watches & Warnings

There are currently no watches in effect.